createdAt,value
2023-03-01T00:00:52.103Z,100243.47
2023-03-01T00:03:20.090Z,100246.47
2023-03-01T00:05:47.716Z,100248.41
2023-03-01T00:08:14.329Z,100244.97
2023-03-01T00:10:40.787Z,100246.00
2023-03-01T00:13:07.693Z,100249.72
2023-03-01T00:15:35.817Z,100251.78
2023-03-01T00:18:02.241Z,100247.38
2023-03-01T00:20:30.898Z,100247.06
2023-03-01T00:22:57.378Z,100249.72
2023-03-01T00:25:23.791Z,100253.56
2023-03-01T00:27:50.554Z,100250.31
2023-03-01T00:30:17.169Z,100251.47
2023-03-01T00:32:43.608Z,100249.69
2023-03-01T00:35:10.485Z,100242.13
2023-03-01T00:37:36.919Z,100244.97
2023-03-01T00:40:07.030Z,100242.88
2023-03-01T00:42:33.460Z,100234.75
2023-03-01T00:44:59.885Z,100235.31
2023-03-01T00:47:26.359Z,100236.97
2023-03-01T00:49:52.826Z,100233.06
2023-03-01T00:52:19.265Z,100239.28
2023-03-01T00:54:45.880Z,100236.91
2023-03-01T00:57:12.325Z,100230.06
2023-03-01T00:59:38.741Z,100228.13
2023-03-01T01:02:05.190Z,100228.22
2023-03-01T01:04:31.668Z,100222.44
2023-03-01T01:06:58.110Z,100220.13
2023-03-01T01:09:24.512Z,100221.38
2023-03-01T01:11:51.807Z,100225.56
2023-03-01T01:14:19.523Z,100221.34
2023-03-01T01:16:46.023Z,100220.94
2023-03-01T01:19:12.997Z,100219.25
2023-03-01T01:21:39.434Z,100221.94
2023-03-01T01:24:06.443Z,100225.19
2023-03-01T01:26:34.893Z,100220.72
2023-03-01T01:29:03.306Z,100227.81
2023-03-01T01:31:30.964Z,100220.84
2023-03-01T01:33:58.344Z,100228.63
2023-03-01T01:36:24.851Z,100222.13
2023-03-01T01:38:51.868Z,100224.81
2023-03-01T01:41:18.888Z,100218.53
2023-03-01T01:43:48.353Z,100222.88
2023-03-01T01:46:30.284Z,100217.09
2023-03-01T01:49:01.237Z,100215.50
2023-03-01T01:51:39.335Z,100209.63
2023-03-01T01:54:28.108Z,100207.19
2023-03-01T01:57:01.934Z,100201.88
2023-03-01T01:59:29.779Z,100204.38
2023-03-01T02:01:56.308Z,100203.28
2023-03-01T02:04:23.207Z,100195.38
2023-03-01T02:06:55.372Z,100190.34
2023-03-01T02:09:22.987Z,100189.13
2023-03-01T02:11:50.129Z,100185.84
2023-03-01T02:14:17.064Z,100179.03
2023-03-01T02:16:43.991Z,100174.97
2023-03-01T02:19:17.901Z,100172.28
2023-03-01T02:22:07.621Z,100171.38
2023-03-01T02:24:39.864Z,100169.44
2023-03-01T02:27:06.591Z,100156.66
2023-03-01T02:29:33.060Z,100163.09
2023-03-01T02:32:00.968Z,100157.88
2023-03-01T02:34:28.073Z,100153.41
2023-03-01T02:37:07.434Z,100156.41
2023-03-01T02:40:00.773Z,100145.53
2023-03-01T02:42:33.008Z,100137.69
2023-03-01T02:44:59.654Z,100140.22
2023-03-01T02:47:26.076Z,100133.50
2023-03-01T02:49:52.628Z,100136.47
2023-03-01T02:52:46.009Z,100131.31
2023-03-01T02:55:15.580Z,100131.44
2023-03-01T02:57:44.567Z,100134.72
2023-03-01T03:00:20.353Z,100131.72
2023-03-01T03:02:52.994Z,100127.38
2023-03-01T03:05:22.171Z,100122.03
2023-03-01T03:07:49.996Z,100118.94
2023-03-01T03:10:27.764Z,100123.56
2023-03-01T03:13:00.188Z,100118.31
2023-03-01T03:15:28.106Z,100117.41
2023-03-01T03:17:54.802Z,100120.38
2023-03-01T03:20:23.626Z,100112.63
2023-03-01T03:22:52.712Z,100116.69
2023-03-01T03:25:19.722Z,100117.41
2023-03-01T03:27:48.248Z,100112.22
2023-03-01T03:30:18.459Z,100107.63
2023-03-01T03:32:53.053Z,100106.38
2023-03-01T03:35:33.824Z,100112.06
2023-03-01T03:38:02.922Z,100104.91
2023-03-01T03:40:38.427Z,100109.94
2023-03-01T03:43:06.445Z,100106.78
2023-03-01T03:45:34.465Z,100099.09
2023-03-01T03:48:01.706Z,100103.03
2023-03-01T03:50:28.255Z,100102.25
2023-03-01T03:52:54.792Z,100098.22
2023-03-01T03:55:21.274Z,100093.44
2023-03-01T03:57:52.550Z,100089.03
2023-03-01T04:00:21.911Z,100088.50
2023-03-01T04:02:49.328Z,100080.94
2023-03-01T04:05:17.294Z,100084.19
2023-03-01T04:07:44.061Z,100069.91
2023-03-01T04:10:14.037Z,100077.94
2023-03-01T04:12:40.526Z,100076.72
2023-03-01T04:15:14.093Z,100073.16
2023-03-01T04:17:45.163Z,100068.13
2023-03-01T04:20:14.676Z,100066.41
2023-03-01T04:22:41.576Z,100069.13
2023-03-01T04:25:08.516Z,100069.44
2023-03-01T04:27:35.442Z,100070.19
2023-03-01T04:30:02.670Z,100068.47
2023-03-01T04:32:29.188Z,100069.13
2023-03-01T04:34:55.805Z,100076.06
2023-03-01T04:37:22.260Z,100063.19
2023-03-01T04:39:48.733Z,100060.50
2023-03-01T04:42:16.158Z,100058.81
2023-03-01T04:44:42.634Z,100065.13
2023-03-01T04:47:09.165Z,100064.44
2023-03-01T04:49:35.819Z,100057.03
2023-03-01T04:52:05.090Z,100050.53
2023-03-01T04:54:32.715Z,100062.00
2023-03-01T04:56:59.701Z,100056.97
2023-03-01T04:59:26.624Z,100068.09
2023-03-01T05:01:56.420Z,100058.81
2023-03-01T05:04:23.961Z,100061.25
2023-03-01T05:06:50.901Z,100061.31
2023-03-01T05:09:17.563Z,100057.59
2023-03-01T05:11:44.586Z,100060.84
2023-03-01T05:14:11.346Z,100061.81
2023-03-01T05:16:38.169Z,100065.97
2023-03-01T05:19:16.134Z,100066.63
2023-03-01T05:22:02.512Z,100064.09
2023-03-01T05:24:30.552Z,100060.50
2023-03-01T05:26:57.023Z,100054.16
2023-03-01T05:29:27.942Z,100061.91
2023-03-01T05:31:55.922Z,100063.84
2023-03-01T05:34:34.028Z,100054.53
2023-03-01T05:37:01.052Z,100061.00
2023-03-01T05:39:29.358Z,100058.56
2023-03-01T05:42:00.628Z,100057.19
2023-03-01T05:44:27.789Z,100060.91
2023-03-01T05:46:55.980Z,100056.28
2023-03-01T05:49:24.893Z,100049.81
2023-03-01T05:51:53.402Z,100052.47
2023-03-01T05:54:21.237Z,100046.13
2023-03-01T05:56:47.965Z,100038.56
2023-03-01T05:59:15.971Z,100044.31
2023-03-01T06:01:42.405Z,100036.44
2023-03-01T06:04:09.158Z,100037.34
2023-03-01T06:06:40.408Z,100036.72
2023-03-01T06:09:08.371Z,100031.50
2023-03-01T06:11:35.978Z,100039.13
2023-03-01T06:14:02.568Z,100034.19
2023-03-01T06:16:29.510Z,100043.41
2023-03-01T06:18:56.263Z,100044.19
2023-03-01T06:21:22.748Z,100044.63
2023-03-01T06:23:49.171Z,100036.31
2023-03-01T06:26:15.654Z,100028.28
2023-03-01T06:28:42.066Z,100036.75
2023-03-01T06:31:09.862Z,100029.66
2023-03-01T06:33:37.379Z,100032.56
2023-03-01T06:36:04.313Z,100038.41
2023-03-01T06:38:30.831Z,100039.31
2023-03-01T06:40:57.658Z,100037.03
2023-03-01T06:43:24.672Z,100045.41
2023-03-01T06:45:51.468Z,100038.56
2023-03-01T06:48:18.358Z,100046.34
2023-03-01T06:50:44.920Z,100047.41
2023-03-01T06:53:11.585Z,100047.63
2023-03-01T06:55:38.046Z,100042.50
2023-03-01T06:58:04.509Z,100039.13
2023-03-01T07:00:31.498Z,100041.97
2023-03-01T07:03:04.660Z,100041.13
2023-03-01T07:05:31.902Z,100032.72
2023-03-01T07:07:58.443Z,100041.09
2023-03-01T07:10:25.062Z,100042.31
2023-03-01T07:12:51.597Z,100037.34
2023-03-01T07:15:21.302Z,100040.31
2023-03-01T07:17:50.859Z,100043.31
2023-03-01T07:20:18.592Z,100035.63
2023-03-01T07:22:45.056Z,100032.97
2023-03-01T07:25:12.005Z,100028.28
2023-03-01T07:27:38.468Z,100025.31
2023-03-01T07:30:05.457Z,100023.09
2023-03-01T07:32:32.074Z,100016.72
2023-03-01T07:34:58.568Z,100017.66
2023-03-01T07:37:25.037Z,100010.22
2023-03-01T07:39:51.514Z,100008.72
2023-03-01T07:42:17.933Z,100007.84
2023-03-01T07:44:44.410Z,100009.34
2023-03-01T07:47:10.942Z,100007.56
2023-03-01T07:49:37.382Z,100004.88
2023-03-01T07:52:03.995Z,100009.63
2023-03-01T07:54:30.520Z,100001.59
2023-03-01T07:56:57.888Z,100015.69
2023-03-01T07:59:29.807Z,100007.22
2023-03-01T08:01:57.455Z,99992.91
2023-03-01T08:04:25.821Z,99992.44
2023-03-01T08:06:52.686Z,99994.81
2023-03-01T08:09:19.224Z,99992.50
2023-03-01T08:11:45.762Z,99988.94
2023-03-01T08:14:12.200Z,99980.28
2023-03-01T08:16:38.885Z,99986.34
2023-03-01T08:19:10.187Z,99983.31
2023-03-01T08:21:37.192Z,99980.69
2023-03-01T08:24:06.696Z,99975.06
2023-03-01T08:26:35.971Z,99977.13
2023-03-01T08:29:02.547Z,99970.50
2023-03-01T08:31:36.577Z,99976.81
2023-03-01T08:34:08.958Z,99972.34
2023-03-01T08:36:43.595Z,99969.34
2023-03-01T08:39:12.306Z,99966.13
2023-03-01T08:41:39.224Z,99959.50
2023-03-01T08:44:06.109Z,99960.38
2023-03-01T08:46:36.828Z,99958.88
2023-03-01T08:49:07.992Z,99960.66
2023-03-01T08:51:37.669Z,99959.91
2023-03-01T08:54:10.818Z,99957.22
2023-03-01T08:56:37.369Z,99955.16
2023-03-01T08:59:04.425Z,99962.06
2023-03-01T09:01:30.952Z,99961.09
2023-03-01T09:03:57.436Z,99964.75
2023-03-01T09:06:23.942Z,99952.38
2023-03-01T09:08:51.337Z,99955.19
2023-03-01T09:11:20.514Z,99950.38
2023-03-01T09:13:48.171Z,99939.34
2023-03-01T09:16:16.279Z,99949.41
2023-03-01T09:18:42.758Z,99941.31
2023-03-01T09:21:14.884Z,99937.66
2023-03-01T09:23:45.843Z,99937.19
2023-03-01T09:26:22.993Z,99944.94
2023-03-01T09:28:54.495Z,99935.31
2023-03-01T09:31:22.190Z,99929.59
2023-03-01T09:33:51.211Z,99923.13
2023-03-01T09:36:21.614Z,99923.16
2023-03-01T09:38:48.665Z,99925.84
2023-03-01T09:41:18.242Z,99923.31
2023-03-01T09:44:05.963Z,99918.25
2023-03-01T09:46:38.905Z,99912.91
2023-03-01T09:49:12.257Z,99915.72
2023-03-01T09:51:38.907Z,99906.19
2023-03-01T09:54:06.623Z,99905.56
2023-03-01T09:56:42.732Z,99905.03
2023-03-01T09:59:15.226Z,99906.19
2023-03-01T10:01:59.403Z,99897.66
2023-03-01T10:04:48.983Z,99892.31
2023-03-01T10:07:29.167Z,99883.16
2023-03-01T10:09:55.734Z,99884.44
2023-03-01T10:12:27.835Z,99884.28
2023-03-01T10:15:06.526Z,99880.72
2023-03-01T10:17:53.823Z,99884.91
2023-03-01T10:20:43.049Z,99878.28
2023-03-01T10:23:10.017Z,99868.63
2023-03-01T10:25:45.400Z,99869.13
2023-03-01T10:28:19.071Z,99876.19
2023-03-01T10:30:46.254Z,99876.66
2023-03-01T10:33:23.152Z,99877.03
2023-03-01T10:35:49.855Z,99874.84
2023-03-01T10:38:18.482Z,99876.31
2023-03-01T10:40:52.865Z,99864.91
2023-03-01T10:43:19.526Z,99857.28
2023-03-01T10:45:45.999Z,99861.19
2023-03-01T10:48:18.007Z,99854.69
2023-03-01T10:50:46.926Z,99861.19
2023-03-01T10:53:27.727Z,99862.97
2023-03-01T10:56:02.157Z,99857.06
2023-03-01T10:58:29.885Z,99851.44
2023-03-01T11:01:07.920Z,99859.75
2023-03-01T11:03:39.685Z,99848.91
2023-03-01T11:06:12.254Z,99845.31
2023-03-01T11:08:43.069Z,99834.41
2023-03-01T11:11:26.346Z,99838.91
2023-03-01T11:14:23.459Z,99827.47
2023-03-01T11:17:04.075Z,99825.09
2023-03-01T11:19:30.720Z,99829.78
2023-03-01T11:22:03.283Z,99826.63
2023-03-01T11:24:43.692Z,99830.47
2023-03-01T11:27:18.241Z,99817.41
2023-03-01T11:29:49.191Z,99816.00
2023-03-01T11:32:16.575Z,99798.69
2023-03-01T11:35:02.289Z,99802.47
2023-03-01T11:37:50.412Z,99791.03
2023-03-01T11:40:26.605Z,99789.94
2023-03-01T11:43:11.904Z,99785.63
2023-03-01T11:45:49.239Z,99775.50
2023-03-01T11:48:48.917Z,99779.06
2023-03-01T11:51:25.140Z,99776.19
2023-03-01T11:54:02.211Z,99773.72
2023-03-01T11:56:34.972Z,99762.41
2023-03-01T11:59:40.035Z,99765.31
2023-03-01T12:02:06.493Z,99764.75
2023-03-01T12:05:03.733Z,99766.50
2023-03-01T12:07:37.307Z,99756.84
2023-03-01T12:10:12.803Z,99753.94
2023-03-01T12:12:57.913Z,99748.44
2023-03-01T12:15:40.769Z,99746.63
2023-03-01T12:18:25.550Z,99734.13
2023-03-01T12:21:10.449Z,99734.59
2023-03-01T12:23:57.761Z,99724.16
2023-03-01T12:26:32.203Z,99719.06
2023-03-01T12:29:32.480Z,99718.22
2023-03-01T12:32:12.326Z,99720.94
2023-03-01T12:35:01.043Z,99712.09
2023-03-01T12:37:43.960Z,99704.03
2023-03-01T12:40:25.935Z,99702.19
2023-03-01T12:43:04.319Z,99689.22
2023-03-01T12:45:57.265Z,99687.94
2023-03-01T12:48:33.252Z,99677.56
2023-03-01T12:51:03.799Z,99681.28
2023-03-01T12:53:34.704Z,99666.38
2023-03-01T12:56:04.151Z,99664.44
2023-03-01T12:58:58.880Z,99663.66
2023-03-01T13:01:40.409Z,99657.16
2023-03-01T13:04:12.847Z,99661.88
2023-03-01T13:06:48.233Z,99643.69
2023-03-01T13:10:02.529Z,99634.47
2023-03-01T13:12:53.997Z,99640.25
2023-03-01T13:15:23.483Z,99636.94
2023-03-01T13:18:26.486Z,99640.25
2023-03-01T13:20:55.425Z,99641.22
2023-03-01T13:23:21.971Z,99637.59
2023-03-01T13:26:03.569Z,99635.53
2023-03-01T13:28:32.698Z,99633.47
2023-03-01T13:30:59.668Z,99625.91
2023-03-01T13:33:29.038Z,99622.56
2023-03-01T13:35:59.524Z,99618.97
2023-03-01T13:38:48.704Z,99628.91
2023-03-01T13:41:43.641Z,99618.47
2023-03-01T13:44:37.215Z,99613.88
2023-03-01T13:47:06.899Z,99611.50
2023-03-01T13:49:46.596Z,99608.94
2023-03-01T13:52:22.206Z,99613.09
2023-03-01T13:54:48.657Z,99601.09
2023-03-01T13:57:23.090Z,99607.78
2023-03-01T13:59:49.568Z,99603.41
2023-03-01T14:02:16.158Z,99602.06
2023-03-01T14:04:42.656Z,99597.59
2023-03-01T14:07:25.209Z,99596.13
2023-03-01T14:09:57.702Z,99593.41
2023-03-01T14:12:32.847Z,99586.72
2023-03-01T14:15:06.043Z,99594.06
2023-03-01T14:17:38.536Z,99587.69
2023-03-01T14:20:20.528Z,99582.25
2023-03-01T14:22:47.539Z,99585.91
2023-03-01T14:25:21.500Z,99574.06
2023-03-01T14:27:55.372Z,99577.59
2023-03-01T14:30:43.674Z,99576.44
2023-03-01T14:33:23.318Z,99565.59
2023-03-01T14:35:58.993Z,99570.72
2023-03-01T14:38:36.125Z,99560.50
2023-03-01T14:41:10.071Z,99556.63
2023-03-01T14:43:38.847Z,99570.06
2023-03-01T14:46:05.364Z,99562.63
2023-03-01T14:48:32.406Z,99564.28
2023-03-01T14:50:59.063Z,99564.06
2023-03-01T14:53:28.620Z,99564.53
2023-03-01T14:55:57.360Z,99556.94
2023-03-01T14:58:25.876Z,99571.13
2023-03-01T15:00:56.069Z,99569.91
2023-03-01T15:03:31.574Z,99575.66
2023-03-01T15:05:58.206Z,99571.94
2023-03-01T15:08:26.878Z,99574.66
2023-03-01T15:10:59.149Z,99572.44
2023-03-01T15:13:27.599Z,99562.41
2023-03-01T15:16:08.303Z,99577.03
2023-03-01T15:18:35.684Z,99569.19
2023-03-01T15:21:18.614Z,99579.44
2023-03-01T15:23:53.214Z,99576.47
2023-03-01T15:26:25.897Z,99572.53
2023-03-01T15:28:54.098Z,99576.06
2023-03-01T15:31:26.314Z,99583.34
2023-03-01T15:33:53.042Z,99581.59
2023-03-01T15:36:42.801Z,99585.56
2023-03-01T15:39:38.271Z,99587.16
2023-03-01T15:42:06.949Z,99592.44
2023-03-01T15:44:43.349Z,99590.59
2023-03-01T15:47:25.252Z,99588.94
2023-03-01T15:49:55.441Z,99591.91
2023-03-01T15:52:32.589Z,99589.16
2023-03-01T15:55:01.395Z,99571.56
2023-03-01T15:57:28.568Z,99582.28
2023-03-01T15:59:55.072Z,99577.94
2023-03-01T16:02:23.569Z,99582.09
2023-03-01T16:04:50.033Z,99585.63
2023-03-01T16:07:16.863Z,99592.78
2023-03-01T16:09:44.883Z,99593.66
2023-03-01T16:12:15.629Z,99599.34
2023-03-01T16:14:42.290Z,99598.00
2023-03-01T16:17:11.053Z,99598.97
2023-03-01T16:19:38.669Z,99601.13
2023-03-01T16:22:05.465Z,99597.69
2023-03-01T16:24:32.121Z,99600.94
2023-03-01T16:26:58.546Z,99592.06
2023-03-01T16:29:25.109Z,99598.16
2023-03-01T16:31:51.969Z,99606.41
2023-03-01T16:34:18.634Z,99607.59
2023-03-01T16:36:45.233Z,99611.16
2023-03-01T16:39:11.659Z,99604.63
2023-03-01T16:41:38.089Z,99611.72
2023-03-01T16:44:04.653Z,99601.88
2023-03-01T16:46:31.189Z,99600.69
2023-03-01T16:48:58.054Z,99598.03
2023-03-01T16:51:24.999Z,99604.50
2023-03-01T16:53:51.868Z,99601.75
2023-03-01T16:56:19.332Z,99604.25
2023-03-01T16:58:45.832Z,99611.81
2023-03-01T17:01:18.099Z,99615.03
2023-03-01T17:03:47.341Z,99611.97
2023-03-01T17:06:16.679Z,99617.28
2023-03-01T17:08:43.199Z,99615.69
2023-03-01T17:11:18.419Z,99616.44
2023-03-01T17:13:44.949Z,99614.88
2023-03-01T17:16:15.236Z,99624.47
2023-03-01T17:18:41.803Z,99622.28
2023-03-01T17:21:08.805Z,99626.16
2023-03-01T17:23:36.354Z,99627.88
2023-03-01T17:26:03.613Z,99629.66
2023-03-01T17:28:32.589Z,99641.84
2023-03-01T17:31:00.322Z,99641.84
2023-03-01T17:33:26.965Z,99639.97
2023-03-01T17:35:53.391Z,99640.28
2023-03-01T17:38:19.902Z,99636.78
2023-03-01T17:40:46.957Z,99643.78
2023-03-01T17:43:14.381Z,99642.66
2023-03-01T17:45:40.923Z,99643.22
2023-03-01T17:48:07.885Z,99644.13
2023-03-01T17:50:38.839Z,99637.00
2023-03-01T17:53:09.630Z,99627.25
2023-03-01T17:55:37.377Z,99622.94
2023-03-01T17:58:04.675Z,99630.81
2023-03-01T18:00:31.335Z,99620.16
2023-03-01T18:02:57.816Z,99626.63
2023-03-01T18:05:24.685Z,99626.81
2023-03-01T18:07:52.240Z,99616.97
2023-03-01T18:10:19.670Z,99623.25
2023-03-01T18:12:46.489Z,99626.59
2023-03-01T18:15:13.269Z,99631.94
2023-03-01T18:17:42.563Z,99635.13
2023-03-01T18:20:10.131Z,99635.44
2023-03-01T18:22:37.833Z,99637.22
2023-03-01T18:25:05.075Z,99643.19
2023-03-01T18:27:31.637Z,99640.09
2023-03-01T18:29:58.253Z,99641.41
2023-03-01T18:32:25.650Z,99638.97
2023-03-01T18:34:52.198Z,99642.53
2023-03-01T18:37:18.652Z,99643.38
2023-03-01T18:39:45.163Z,99649.81
2023-03-01T18:42:11.671Z,99650.13
2023-03-01T18:44:39.712Z,99650.41
2023-03-01T18:47:06.180Z,99645.13
2023-03-01T18:49:32.640Z,99643.00
2023-03-01T18:51:59.300Z,99643.56
2023-03-01T18:54:25.733Z,99640.84
2023-03-01T18:56:52.213Z,99648.16
2023-03-01T18:59:18.714Z,99645.06
2023-03-01T19:01:45.377Z,99645.78
2023-03-01T19:04:12.167Z,99639.03
2023-03-01T19:06:39.447Z,99635.38
2023-03-01T19:09:07.005Z,99640.66
2023-03-01T19:11:35.343Z,99648.69
2023-03-01T19:14:02.367Z,99643.97
2023-03-01T19:16:31.483Z,99644.16
2023-03-01T19:19:03.677Z,99649.84
2023-03-01T19:21:31.912Z,99641.72
2023-03-01T19:23:59.449Z,99642.25
2023-03-01T19:26:27.173Z,99643.50
2023-03-01T19:28:55.242Z,99641.63
2023-03-01T19:31:25.632Z,99642.00
2023-03-01T19:33:59.508Z,99642.66
2023-03-01T19:36:34.998Z,99641.50
2023-03-01T19:39:05.775Z,99646.91
2023-03-01T19:41:32.277Z,99648.56
2023-03-01T19:43:58.745Z,99643.25
2023-03-01T19:46:25.678Z,99639.34
2023-03-01T19:48:53.913Z,99648.59
2023-03-01T19:51:20.439Z,99644.94
2023-03-01T19:53:47.662Z,99650.00
2023-03-01T19:56:14.236Z,99645.75
2023-03-01T19:58:40.821Z,99650.47
2023-03-01T20:01:15.352Z,99651.34
2023-03-01T20:03:41.849Z,99651.72
2023-03-01T20:06:20.228Z,99648.31
2023-03-01T20:08:46.749Z,99648.84
2023-03-01T20:11:14.564Z,99648.72
2023-03-01T20:13:41.302Z,99638.06
2023-03-01T20:16:08.512Z,99650.63
2023-03-01T20:18:35.584Z,99644.31
2023-03-01T20:21:02.777Z,99645.34
2023-03-01T20:23:33.372Z,99643.34
2023-03-01T20:26:08.755Z,99648.28
2023-03-01T20:28:36.674Z,99644.88
2023-03-01T20:31:05.175Z,99645.91
2023-03-01T20:33:31.702Z,99643.09
2023-03-01T20:35:58.258Z,99655.66
2023-03-01T20:38:26.281Z,99648.81
2023-03-01T20:41:03.966Z,99645.25
2023-03-01T20:43:30.973Z,99649.19
2023-03-01T20:45:57.435Z,99641.97
2023-03-01T20:48:24.015Z,99645.50
2023-03-01T20:50:50.500Z,99648.19
2023-03-01T20:53:16.960Z,99641.97
2023-03-01T20:55:43.408Z,99640.44
2023-03-01T20:58:09.843Z,99641.84
2023-03-01T21:00:36.291Z,99645.13
2023-03-01T21:03:03.993Z,99649.94
2023-03-01T21:05:31.723Z,99640.09
2023-03-01T21:10:27.637Z,99641.22
2023-03-01T21:12:54.228Z,99640.94
2023-03-01T21:15:28.961Z,99640.09
2023-03-01T21:17:55.997Z,99638.16
2023-03-01T21:20:22.452Z,99641.47
2023-03-01T21:22:48.895Z,99631.94
2023-03-01T21:25:15.543Z,99638.78
2023-03-01T21:27:42.024Z,99627.16
2023-03-01T21:30:08.998Z,99620.03
2023-03-01T21:32:35.579Z,99623.31
2023-03-01T21:35:02.126Z,99615.22
2023-03-01T21:37:28.540Z,99615.47
2023-03-01T21:39:56.610Z,99617.75
2023-03-01T21:42:23.177Z,99606.59
2023-03-01T21:44:49.575Z,99606.47
2023-03-01T21:47:16.138Z,99610.41
2023-03-01T21:49:42.613Z,99608.38
2023-03-01T21:52:09.067Z,99609.13
2023-03-01T21:54:35.604Z,99600.91
2023-03-01T21:57:02.037Z,99600.13
2023-03-01T21:59:28.986Z,99597.75
2023-03-01T22:01:55.512Z,99590.38
2023-03-01T22:04:24.596Z,99598.00
2023-03-01T22:06:54.286Z,99590.63
2023-03-01T22:09:22.829Z,99599.25
2023-03-01T22:11:51.196Z,99590.38
2023-03-01T22:14:18.926Z,99589.25
2023-03-01T22:16:46.638Z,99600.13
2023-03-01T22:19:15.155Z,99583.41
2023-03-01T22:21:43.679Z,99591.53
2023-03-01T22:24:11.461Z,99583.78
2023-03-01T22:26:40.913Z,99588.09
2023-03-01T22:29:10.498Z,99586.72
2023-03-01T22:31:37.209Z,99582.53
2023-03-01T22:34:04.403Z,99585.31
2023-03-01T22:36:31.485Z,99587.31
2023-03-01T22:39:01.930Z,99583.53
2023-03-01T22:41:48.413Z,99580.00
2023-03-01T22:44:17.658Z,99588.84
2023-03-01T22:46:44.436Z,99582.78
2023-03-01T22:49:11.007Z,99582.78
2023-03-01T22:51:39.809Z,99580.34
2023-03-01T22:54:07.618Z,99577.97
2023-03-01T22:56:36.716Z,99583.53
2023-03-01T22:59:08.574Z,99586.56
2023-03-01T23:01:38.342Z,99578.06
2023-03-01T23:04:05.162Z,99573.63
2023-03-01T23:06:32.229Z,99580.25
2023-03-01T23:09:01.741Z,99577.72
2023-03-01T23:11:29.480Z,99576.91
2023-03-01T23:13:56.462Z,99569.22
2023-03-01T23:16:26.175Z,99568.56
2023-03-01T23:18:58.276Z,99567.03
2023-03-01T23:21:24.763Z,99569.56
2023-03-01T23:23:51.576Z,99569.31
2023-03-01T23:26:18.820Z,99563.91
2023-03-01T23:28:45.383Z,99570.09
2023-03-01T23:31:14.251Z,99557.94
2023-03-01T23:33:43.208Z,99576.78
2023-03-01T23:36:20.025Z,99567.03
2023-03-01T23:38:47.218Z,99564.22
2023-03-01T23:41:16.900Z,99564.97
2023-03-01T23:43:48.272Z,99561.69
2023-03-01T23:46:16.219Z,99566.75
2023-03-01T23:48:43.359Z,99564.97
2023-03-01T23:51:10.428Z,99555.63
2023-03-01T23:53:38.400Z,99563.56
2023-03-01T23:56:05.456Z,99559.28
2023-03-01T23:58:32.185Z,99570.22
